createdAt,value
2022-11-28T00:22:09.481Z,93.55
2022-11-28T00:50:53.573Z,94.79
2022-11-28T01:19:09.283Z,90.47
2022-11-28T01:47:14.956Z,89.56
2022-11-28T02:15:59.583Z,90.52
2022-11-28T02:44:45.950Z,90.04
2022-11-28T03:13:13.466Z,89.12
2022-11-28T03:41:47.078Z,90.82
2022-11-28T04:10:47.682Z,92.15
2022-11-28T04:39:29.628Z,95.05
2022-11-28T05:08:08.075Z,97.2
2022-11-28T05:37:00.533Z,98.49
2022-11-28T06:05:45.184Z,96.61
2022-11-28T06:34:20.786Z,95.8
2022-11-28T07:03:16.492Z,94.47
2022-11-28T07:32:10.216Z,92.87
2022-11-28T08:00:46.301Z,93.8
2022-11-28T08:29:55.292Z,94.06
2022-11-28T08:58:24.553Z,92.5
2022-11-28T09:27:12.120Z,87.87
2022-11-28T09:56:07.294Z,89.13
2022-11-28T10:25:01.667Z,88.05
2022-11-28T10:53:52.822Z,91.78
2022-11-28T11:22:48.337Z,85.7
2022-11-28T11:51:39.942Z,87.95
2022-11-28T12:20:06.272Z,89.73
2022-11-28T12:48:58.097Z,94.21
2022-11-28T13:17:48.079Z,95.45
2022-11-28T13:46:04.410Z,94.15
2022-11-28T14:14:16.941Z,97.21
2022-11-28T14:43:00.675Z,100
2022-11-28T15:11:03.932Z,100
2022-11-28T15:39:27.658Z,100
2022-11-28T16:07:55.834Z,100
2022-11-28T16:36:05.910Z,100
2022-11-28T17:04:23.237Z,100
2022-11-28T17:33:12.014Z,100
2022-11-28T18:02:05.837Z,100
2022-11-28T18:30:55.208Z,100
2022-11-28T18:59:38.753Z,100
2022-11-28T19:28:38.812Z,100
2022-11-28T19:57:25.081Z,100
2022-11-28T20:26:10.622Z,100
2022-11-28T20:55:12.973Z,100
2022-11-28T21:24:11.800Z,100
2022-11-28T21:53:06.013Z,100
2022-11-28T22:22:04.600Z,100
2022-11-28T22:50:24.737Z,100
2022-11-28T23:19:18.523Z,100
2022-11-28T23:48:09.332Z,100
